sensor_id;sensor_type;location;lat;lon;timestamp;P1;durP1;ratioP1;P2;durP2;ratioP2
77111;SDS011;66064;50.226;14.344;2023-06-10T00:00:41;13.70;;;8.85;;
77111;SDS011;66064;50.226;14.344;2023-06-10T00:03:27;14.68;;;8.98;;
77111;SDS011;66064;50.226;14.344;2023-06-10T00:05:53;12.35;;;9.05;;
77111;SDS011;66064;50.226;14.344;2023-06-10T00:08:20;12.80;;;8.82;;
77111;SDS011;66064;50.226;14.344;2023-06-10T00:10:45;13.98;;;8.70;;
77111;SDS011;66064;50.226;14.344;2023-06-10T00:13:12;9.77;;;7.97;;
77111;SDS011;66064;50.226;14.344;2023-06-10T00:15:37;9.95;;;8.02;;
77111;SDS011;66064;50.226;14.344;2023-06-10T00:18:04;10.98;;;9.75;;
77111;SDS011;66064;50.226;14.344;2023-06-10T00:20:30;10.82;;;7.47;;
77111;SDS011;66064;50.226;14.344;2023-06-10T00:23:00;12.82;;;8.80;;
77111;SDS011;66064;50.226;14.344;2023-06-10T00:25:26;15.52;;;8.57;;
77111;SDS011;66064;50.226;14.344;2023-06-10T00:27:52;12.30;;;8.60;;
77111;SDS011;66064;50.226;14.344;2023-06-10T00:30:18;13.75;;;9.80;;
77111;SDS011;66064;50.226;14.344;2023-06-10T00:32:44;15.95;;;9.82;;
77111;SDS011;66064;50.226;14.344;2023-06-10T00:35:10;15.65;;;8.23;;
77111;SDS011;66064;50.226;14.344;2023-06-10T00:37:36;13.90;;;9.10;;
77111;SDS011;66064;50.226;14.344;2023-06-10T00:40:03;13.88;;;10.80;;
77111;SDS011;66064;50.226;14.344;2023-06-10T00:42:30;13.55;;;9.38;;
77111;SDS011;66064;50.226;14.344;2023-06-10T00:44:56;13.43;;;8.57;;
77111;SDS011;66064;50.226;14.344;2023-06-10T00:47:22;17.58;;;10.23;;
77111;SDS011;66064;50.226;14.344;2023-06-10T00:49:51;12.90;;;8.40;;
77111;SDS011;66064;50.226;14.344;2023-06-10T00:52:18;13.93;;;10.15;;
77111;SDS011;66064;50.226;14.344;2023-06-10T00:54:45;13.70;;;9.52;;
77111;SDS011;66064;50.226;14.344;2023-06-10T00:57:12;11.30;;;8.60;;
77111;SDS011;66064;50.226;14.344;2023-06-10T00:59:41;15.98;;;8.82;;
77111;SDS011;66064;50.226;14.344;2023-06-10T01:02:12;12.73;;;8.73;;
77111;SDS011;66064;50.226;14.344;2023-06-10T01:04:38;14.48;;;9.75;;
77111;SDS011;66064;50.226;14.344;2023-06-10T01:14:47;13.25;;;10.13;;
77111;SDS011;66064;50.226;14.344;2023-06-10T01:17:14;12.85;;;8.90;;
77111;SDS011;66064;50.226;14.344;2023-06-10T01:19:41;12.82;;;8.77;;
77111;SDS011;66064;50.226;14.344;2023-06-10T01:22:09;12.65;;;8.98;;
77111;SDS011;66064;50.226;14.344;2023-06-10T01:24:36;13.85;;;8.63;;
77111;SDS011;66064;50.226;14.344;2023-06-10T01:27:08;10.40;;;7.57;;
77111;SDS011;66064;50.226;14.344;2023-06-10T01:29:43;14.50;;;8.93;;
77111;SDS011;66064;50.226;14.344;2023-06-10T01:32:15;21.05;;;8.77;;
77111;SDS011;66064;50.226;14.344;2023-06-10T01:34:45;10.52;;;8.38;;
77111;SDS011;66064;50.226;14.344;2023-06-10T01:37:12;11.60;;;9.30;;
77111;SDS011;66064;50.226;14.344;2023-06-10T01:39:41;14.15;;;9.05;;
77111;SDS011;66064;50.226;14.344;2023-06-10T01:42:09;12.13;;;8.90;;
77111;SDS011;66064;50.226;14.344;2023-06-10T01:44:37;13.85;;;9.05;;
77111;SDS011;66064;50.226;14.344;2023-06-10T01:47:04;12.77;;;9.25;;
77111;SDS011;66064;50.226;14.344;2023-06-10T01:49:31;13.00;;;9.43;;
77111;SDS011;66064;50.226;14.344;2023-06-10T01:51:57;10.73;;;8.30;;
77111;SDS011;66064;50.226;14.344;2023-06-10T01:54:22;12.93;;;9.07;;
77111;SDS011;66064;50.226;14.344;2023-06-10T01:56:48;13.15;;;9.57;;
77111;SDS011;66064;50.226;14.344;2023-06-10T01:59:14;13.05;;;10.23;;
77111;SDS011;66064;50.226;14.344;2023-06-10T02:01:41;14.73;;;9.32;;
77111;SDS011;66064;50.226;14.344;2023-06-10T02:04:07;13.07;;;9.82;;
77111;SDS011;66064;50.226;14.344;2023-06-10T02:06:33;17.70;;;9.10;;
77111;SDS011;66064;50.226;14.344;2023-06-10T02:09:00;13.23;;;8.85;;
77111;SDS011;66064;50.226;14.344;2023-06-10T02:11:27;12.43;;;9.98;;
77111;SDS011;66064;50.226;14.344;2023-06-10T02:13:53;9.50;;;8.10;;
77111;SDS011;66064;50.226;14.344;2023-06-10T02:16:19;16.58;;;10.70;;
77111;SDS011;66064;50.226;14.344;2023-06-10T02:18:46;23.70;;;10.07;;
77111;SDS011;66064;50.226;14.344;2023-06-10T02:21:14;20.02;;;10.25;;
77111;SDS011;66064;50.226;14.344;2023-06-10T02:23:40;13.50;;;10.60;;
77111;SDS011;66064;50.226;14.344;2023-06-10T02:26:06;15.18;;;10.02;;
77111;SDS011;66064;50.226;14.344;2023-06-10T02:28:32;13.57;;;9.52;;
77111;SDS011;66064;50.226;14.344;2023-06-10T02:30:58;16.83;;;10.73;;
77111;SDS011;66064;50.226;14.344;2023-06-10T02:33:24;16.63;;;9.93;;
77111;SDS011;66064;50.226;14.344;2023-06-10T02:35:50;15.95;;;9.73;;
77111;SDS011;66064;50.226;14.344;2023-06-10T02:38:16;12.85;;;9.05;;
77111;SDS011;66064;50.226;14.344;2023-06-10T02:40:42;14.13;;;10.50;;
77111;SDS011;66064;50.226;14.344;2023-06-10T02:43:08;12.45;;;9.52;;
77111;SDS011;66064;50.226;14.344;2023-06-10T02:45:35;16.02;;;9.18;;
77111;SDS011;66064;50.226;14.344;2023-06-10T02:48:01;16.80;;;9.30;;
77111;SDS011;66064;50.226;14.344;2023-06-10T02:50:27;13.35;;;10.82;;
77111;SDS011;66064;50.226;14.344;2023-06-10T02:52:52;14.05;;;10.07;;
77111;SDS011;66064;50.226;14.344;2023-06-10T02:55:18;13.38;;;10.13;;
77111;SDS011;66064;50.226;14.344;2023-06-10T02:57:44;14.65;;;10.27;;
77111;SDS011;66064;50.226;14.344;2023-06-10T03:00:10;12.48;;;8.80;;
77111;SDS011;66064;50.226;14.344;2023-06-10T03:02:37;14.88;;;9.48;;
77111;SDS011;66064;50.226;14.344;2023-06-10T03:05:05;13.85;;;9.82;;
77111;SDS011;66064;50.226;14.344;2023-06-10T03:07:35;12.43;;;9.55;;
77111;SDS011;66064;50.226;14.344;2023-06-10T03:10:02;19.42;;;12.23;;
77111;SDS011;66064;50.226;14.344;2023-06-10T03:12:28;13.80;;;9.40;;
77111;SDS011;66064;50.226;14.344;2023-06-10T03:14:54;15.90;;;10.70;;
77111;SDS011;66064;50.226;14.344;2023-06-10T03:17:20;16.95;;;11.00;;
77111;SDS011;66064;50.226;14.344;2023-06-10T03:19:46;17.73;;;10.88;;
77111;SDS011;66064;50.226;14.344;2023-06-10T03:22:13;18.42;;;10.43;;
77111;SDS011;66064;50.226;14.344;2023-06-10T03:24:40;17.90;;;11.07;;
77111;SDS011;66064;50.226;14.344;2023-06-10T03:27:09;16.38;;;10.80;;
77111;SDS011;66064;50.226;14.344;2023-06-10T03:29:36;12.23;;;10.07;;
77111;SDS011;66064;50.226;14.344;2023-06-10T03:32:03;14.57;;;9.32;;
77111;SDS011;66064;50.226;14.344;2023-06-10T03:34:29;13.02;;;9.73;;
77111;SDS011;66064;50.226;14.344;2023-06-10T03:36:55;12.65;;;9.13;;
77111;SDS011;66064;50.226;14.344;2023-06-10T03:39:22;13.23;;;9.55;;
77111;SDS011;66064;50.226;14.344;2023-06-10T03:41:54;16.88;;;10.40;;
77111;SDS011;66064;50.226;14.344;2023-06-10T03:44:23;11.90;;;8.10;;
77111;SDS011;66064;50.226;14.344;2023-06-10T03:46:51;10.82;;;9.05;;
77111;SDS011;66064;50.226;14.344;2023-06-10T03:49:17;15.82;;;9.50;;
77111;SDS011;66064;50.226;14.344;2023-06-10T03:51:43;11.93;;;8.38;;
77111;SDS011;66064;50.226;14.344;2023-06-10T03:54:09;12.73;;;9.27;;
77111;SDS011;66064;50.226;14.344;2023-06-10T03:56:35;10.55;;;7.65;;
77111;SDS011;66064;50.226;14.344;2023-06-10T03:59:01;13.52;;;10.57;;
77111;SDS011;66064;50.226;14.344;2023-06-10T04:01:27;10.73;;;8.32;;
77111;SDS011;66064;50.226;14.344;2023-06-10T04:03:53;9.90;;;7.20;;
77111;SDS011;66064;50.226;14.344;2023-06-10T04:06:19;10.98;;;8.10;;
77111;SDS011;66064;50.226;14.344;2023-06-10T04:08:48;15.25;;;9.95;;
77111;SDS011;66064;50.226;14.344;2023-06-10T04:11:14;13.05;;;8.90;;
77111;SDS011;66064;50.226;14.344;2023-06-10T04:13:40;11.98;;;7.95;;
77111;SDS011;66064;50.226;14.344;2023-06-10T04:16:05;11.93;;;7.43;;
77111;SDS011;66064;50.226;14.344;2023-06-10T04:18:32;11.07;;;7.60;;
77111;SDS011;66064;50.226;14.344;2023-06-10T04:20:57;12.55;;;9.85;;
77111;SDS011;66064;50.226;14.344;2023-06-10T04:23:24;11.68;;;8.40;;
77111;SDS011;66064;50.226;14.344;2023-06-10T04:25:50;10.55;;;7.28;;
77111;SDS011;66064;50.226;14.344;2023-06-10T04:28:16;12.52;;;8.68;;
77111;SDS011;66064;50.226;14.344;2023-06-10T04:30:41;11.05;;;8.32;;
77111;SDS011;66064;50.226;14.344;2023-06-10T04:33:08;10.13;;;7.47;;
77111;SDS011;66064;50.226;14.344;2023-06-10T04:35:34;9.75;;;7.68;;
77111;SDS011;66064;50.226;14.344;2023-06-10T04:38:00;9.52;;;6.90;;
77111;SDS011;66064;50.226;14.344;2023-06-10T04:40:28;8.38;;;6.68;;
77111;SDS011;66064;50.226;14.344;2023-06-10T04:42:55;9.32;;;7.38;;
77111;SDS011;66064;50.226;14.344;2023-06-10T04:45:21;8.57;;;6.97;;
77111;SDS011;66064;50.226;14.344;2023-06-10T04:47:47;8.48;;;6.43;;
77111;SDS011;66064;50.226;14.344;2023-06-10T04:50:12;6.57;;;5.72;;
77111;SDS011;66064;50.226;14.344;2023-06-10T04:52:39;8.23;;;6.07;;
77111;SDS011;66064;50.226;14.344;2023-06-10T04:55:06;9.30;;;6.10;;
77111;SDS011;66064;50.226;14.344;2023-06-10T04:57:33;7.90;;;6.25;;
77111;SDS011;66064;50.226;14.344;2023-06-10T04:59:59;9.82;;;6.22;;
77111;SDS011;66064;50.226;14.344;2023-06-10T05:02:26;10.18;;;6.70;;
77111;SDS011;66064;50.226;14.344;2023-06-10T05:04:51;9.30;;;6.53;;
77111;SDS011;66064;50.226;14.344;2023-06-10T05:07:18;11.85;;;8.07;;
77111;SDS011;66064;50.226;14.344;2023-06-10T05:09:44;10.27;;;6.90;;
77111;SDS011;66064;50.226;14.344;2023-06-10T05:12:10;9.95;;;6.25;;
77111;SDS011;66064;50.226;14.344;2023-06-10T05:14:36;9.05;;;7.07;;
77111;SDS011;66064;50.226;14.344;2023-06-10T05:17:02;12.52;;;7.07;;
77111;SDS011;66064;50.226;14.344;2023-06-10T05:21:56;8.18;;;6.05;;
77111;SDS011;66064;50.226;14.344;2023-06-10T05:24:22;9.40;;;6.78;;
77111;SDS011;66064;50.226;14.344;2023-06-10T05:26:49;10.65;;;7.10;;
77111;SDS011;66064;50.226;14.344;2023-06-10T05:29:15;9.73;;;6.05;;
77111;SDS011;66064;50.226;14.344;2023-06-10T05:31:41;8.68;;;5.85;;
77111;SDS011;66064;50.226;14.344;2023-06-10T05:34:07;10.15;;;6.75;;
77111;SDS011;66064;50.226;14.344;2023-06-10T05:36:33;10.13;;;6.95;;
77111;SDS011;66064;50.226;14.344;2023-06-10T05:38:59;8.90;;;6.10;;
77111;SDS011;66064;50.226;14.344;2023-06-10T05:41:25;9.45;;;6.65;;
77111;SDS011;66064;50.226;14.344;2023-06-10T05:43:51;8.40;;;6.35;;
77111;SDS011;66064;50.226;14.344;2023-06-10T05:46:17;11.43;;;6.15;;
77111;SDS011;66064;50.226;14.344;2023-06-10T05:48:43;8.27;;;6.50;;
77111;SDS011;66064;50.226;14.344;2023-06-10T05:51:09;9.27;;;6.75;;
77111;SDS011;66064;50.226;14.344;2023-06-10T05:53:35;8.05;;;6.05;;
77111;SDS011;66064;50.226;14.344;2023-06-10T05:56:02;10.88;;;6.13;;
77111;SDS011;66064;50.226;14.344;2023-06-10T05:58:27;9.02;;;6.20;;
77111;SDS011;66064;50.226;14.344;2023-06-10T06:00:53;11.38;;;6.60;;
77111;SDS011;66064;50.226;14.344;2023-06-10T06:03:19;10.68;;;6.30;;
77111;SDS011;66064;50.226;14.344;2023-06-10T06:05:45;9.40;;;5.90;;
77111;SDS011;66064;50.226;14.344;2023-06-10T06:08:11;8.95;;;6.78;;
77111;SDS011;66064;50.226;14.344;2023-06-10T06:10:39;9.75;;;7.03;;
77111;SDS011;66064;50.226;14.344;2023-06-10T06:13:04;14.23;;;6.85;;
77111;SDS011;66064;50.226;14.344;2023-06-10T06:15:31;13.95;;;7.65;;
77111;SDS011;66064;50.226;14.344;2023-06-10T06:17:56;11.18;;;8.18;;
77111;SDS011;66064;50.226;14.344;2023-06-10T06:20:23;11.45;;;7.40;;
77111;SDS011;66064;50.226;14.344;2023-06-10T06:22:49;10.57;;;6.68;;
77111;SDS011;66064;50.226;14.344;2023-06-10T06:25:15;10.65;;;7.60;;
77111;SDS011;66064;50.226;14.344;2023-06-10T06:27:41;11.63;;;7.05;;
77111;SDS011;66064;50.226;14.344;2023-06-10T06:30:07;13.65;;;7.55;;
77111;SDS011;66064;50.226;14.344;2023-06-10T06:32:33;10.10;;;6.90;;
77111;SDS011;66064;50.226;14.344;2023-06-10T06:34:59;11.45;;;7.32;;
77111;SDS011;66064;50.226;14.344;2023-06-10T06:37:25;13.27;;;8.20;;
77111;SDS011;66064;50.226;14.344;2023-06-10T06:39:52;12.10;;;8.30;;
77111;SDS011;66064;50.226;14.344;2023-06-10T06:42:18;13.27;;;7.85;;
77111;SDS011;66064;50.226;14.344;2023-06-10T06:44:46;11.27;;;7.32;;
77111;SDS011;66064;50.226;14.344;2023-06-10T06:47:13;10.65;;;7.35;;
77111;SDS011;66064;50.226;14.344;2023-06-10T06:49:39;14.35;;;7.80;;
77111;SDS011;66064;50.226;14.344;2023-06-10T06:52:05;10.85;;;7.45;;
77111;SDS011;66064;50.226;14.344;2023-06-10T06:54:31;10.90;;;7.18;;
77111;SDS011;66064;50.226;14.344;2023-06-10T06:56:57;9.43;;;7.00;;
77111;SDS011;66064;50.226;14.344;2023-06-10T06:59:23;10.73;;;7.47;;
77111;SDS011;66064;50.226;14.344;2023-06-10T07:01:50;10.00;;;6.85;;
77111;SDS011;66064;50.226;14.344;2023-06-10T07:04:17;12.10;;;7.80;;
77111;SDS011;66064;50.226;14.344;2023-06-10T07:06:44;9.20;;;7.53;;
77111;SDS011;66064;50.226;14.344;2023-06-10T07:09:11;10.10;;;6.63;;
77111;SDS011;66064;50.226;14.344;2023-06-10T07:11:36;9.90;;;7.90;;
77111;SDS011;66064;50.226;14.344;2023-06-10T07:14:02;11.40;;;6.65;;
77111;SDS011;66064;50.226;14.344;2023-06-10T07:16:28;8.43;;;5.90;;
77111;SDS011;66064;50.226;14.344;2023-06-10T07:18:55;9.43;;;6.78;;
77111;SDS011;66064;50.226;14.344;2023-06-10T07:21:20;9.45;;;6.20;;
77111;SDS011;66064;50.226;14.344;2023-06-10T07:23:48;10.07;;;6.15;;
77111;SDS011;66064;50.226;14.344;2023-06-10T07:26:15;9.40;;;6.78;;
77111;SDS011;66064;50.226;14.344;2023-06-10T07:28:41;8.27;;;5.50;;
77111;SDS011;66064;50.226;14.344;2023-06-10T07:31:08;12.43;;;6.07;;
77111;SDS011;66064;50.226;14.344;2023-06-10T07:33:34;7.50;;;5.65;;
77111;SDS011;66064;50.226;14.344;2023-06-10T07:36:02;9.50;;;6.22;;
77111;SDS011;66064;50.226;14.344;2023-06-10T07:38:28;8.40;;;5.95;;
77111;SDS011;66064;50.226;14.344;2023-06-10T07:40:54;7.07;;;5.65;;
77111;SDS011;66064;50.226;14.344;2023-06-10T07:43:20;7.68;;;5.70;;
77111;SDS011;66064;50.226;14.344;2023-06-10T07:45:46;7.22;;;5.70;;
77111;SDS011;66064;50.226;14.344;2023-06-10T07:48:12;7.78;;;5.68;;
77111;SDS011;66064;50.226;14.344;2023-06-10T07:50:38;7.53;;;5.75;;
77111;SDS011;66064;50.226;14.344;2023-06-10T07:53:04;8.55;;;6.25;;
77111;SDS011;66064;50.226;14.344;2023-06-10T07:55:30;6.45;;;5.47;;
77111;SDS011;66064;50.226;14.344;2023-06-10T07:57:56;8.48;;;5.57;;
77111;SDS011;66064;50.226;14.344;2023-06-10T08:00:22;7.53;;;5.53;;
77111;SDS011;66064;50.226;14.344;2023-06-10T08:02:48;7.97;;;5.50;;
77111;SDS011;66064;50.226;14.344;2023-06-10T08:05:15;7.13;;;5.22;;
77111;SDS011;66064;50.226;14.344;2023-06-10T08:07:42;7.15;;;5.43;;
77111;SDS011;66064;50.226;14.344;2023-06-10T08:10:08;12.30;;;5.38;;
77111;SDS011;66064;50.226;14.344;2023-06-10T08:12:34;7.38;;;5.40;;
77111;SDS011;66064;50.226;14.344;2023-06-10T08:15:01;5.07;;;4.47;;
77111;SDS011;66064;50.226;14.344;2023-06-10T08:17:30;5.57;;;4.53;;
77111;SDS011;66064;50.226;14.344;2023-06-10T08:19:56;5.72;;;4.65;;
77111;SDS011;66064;50.226;14.344;2023-06-10T08:22:23;7.40;;;5.75;;
77111;SDS011;66064;50.226;14.344;2023-06-10T08:24:48;6.78;;;4.88;;
77111;SDS011;66064;50.226;14.344;2023-06-10T08:27:14;6.50;;;5.32;;
77111;SDS011;66064;50.226;14.344;2023-06-10T08:29:40;6.05;;;4.80;;
77111;SDS011;66064;50.226;14.344;2023-06-10T08:32:07;7.25;;;4.68;;
77111;SDS011;66064;50.226;14.344;2023-06-10T08:34:33;7.13;;;4.40;;
77111;SDS011;66064;50.226;14.344;2023-06-10T08:37:01;6.15;;;4.32;;
77111;SDS011;66064;50.226;14.344;2023-06-10T08:39:28;5.35;;;4.30;;
77111;SDS011;66064;50.226;14.344;2023-06-10T08:44:52;6.97;;;5.18;;
77111;SDS011;66064;50.226;14.344;2023-06-10T08:47:22;5.43;;;4.35;;
77111;SDS011;66064;50.226;14.344;2023-06-10T08:49:50;12.80;;;4.40;;
77111;SDS011;66064;50.226;14.344;2023-06-10T08:52:19;5.68;;;4.90;;
77111;SDS011;66064;50.226;14.344;2023-06-10T08:54:52;9.48;;;4.90;;
77111;SDS011;66064;50.226;14.344;2023-06-10T08:57:20;5.97;;;4.47;;
77111;SDS011;66064;50.226;14.344;2023-06-10T08:59:47;7.38;;;4.47;;
77111;SDS011;66064;50.226;14.344;2023-06-10T09:02:14;5.32;;;4.43;;
77111;SDS011;66064;50.226;14.344;2023-06-10T09:04:43;5.80;;;4.15;;
77111;SDS011;66064;50.226;14.344;2023-06-10T09:07:11;5.82;;;4.63;;
77111;SDS011;66064;50.226;14.344;2023-06-10T09:09:39;9.82;;;4.55;;
77111;SDS011;66064;50.226;14.344;2023-06-10T09:12:07;6.53;;;4.93;;
77111;SDS011;66064;50.226;14.344;2023-06-10T09:14:33;5.38;;;4.30;;
77111;SDS011;66064;50.226;14.344;2023-06-10T09:17:00;6.10;;;4.72;;
77111;SDS011;66064;50.226;14.344;2023-06-10T09:19:26;5.88;;;4.82;;
77111;SDS011;66064;50.226;14.344;2023-06-10T09:21:54;7.75;;;4.82;;
77111;SDS011;66064;50.226;14.344;2023-06-10T09:24:23;5.25;;;4.32;;
77111;SDS011;66064;50.226;14.344;2023-06-10T09:26:50;5.60;;;4.38;;
77111;SDS011;66064;50.226;14.344;2023-06-10T09:29:16;6.40;;;4.90;;
77111;SDS011;66064;50.226;14.344;2023-06-10T09:31:42;7.32;;;5.22;;
77111;SDS011;66064;50.226;14.344;2023-06-10T09:34:10;6.93;;;5.43;;
77111;SDS011;66064;50.226;14.344;2023-06-10T09:36:39;7.32;;;5.57;;
77111;SDS011;66064;50.226;14.344;2023-06-10T09:39:05;5.03;;;4.15;;
77111;SDS011;66064;50.226;14.344;2023-06-10T09:41:41;8.05;;;5.03;;
77111;SDS011;66064;50.226;14.344;2023-06-10T09:44:11;7.10;;;5.53;;
77111;SDS011;66064;50.226;14.344;2023-06-10T09:46:46;8.38;;;5.82;;
77111;SDS011;66064;50.226;14.344;2023-06-10T09:49:13;6.25;;;4.72;;
77111;SDS011;66064;50.226;14.344;2023-06-10T09:51:49;10.40;;;5.80;;
77111;SDS011;66064;50.226;14.344;2023-06-10T09:54:19;6.90;;;5.32;;
77111;SDS011;66064;50.226;14.344;2023-06-10T09:56:47;7.25;;;5.50;;
77111;SDS011;66064;50.226;14.344;2023-06-10T09:59:14;6.63;;;5.45;;
77111;SDS011;66064;50.226;14.344;2023-06-10T10:01:40;7.55;;;6.13;;
77111;SDS011;66064;50.226;14.344;2023-06-10T10:04:06;7.85;;;5.80;;
77111;SDS011;66064;50.226;14.344;2023-06-10T10:06:32;7.35;;;5.55;;
77111;SDS011;66064;50.226;14.344;2023-06-10T10:08:59;7.05;;;5.50;;
77111;SDS011;66064;50.226;14.344;2023-06-10T10:11:25;8.75;;;5.93;;
77111;SDS011;66064;50.226;14.344;2023-06-10T10:13:52;9.43;;;5.25;;
77111;SDS011;66064;50.226;14.344;2023-06-10T10:16:37;9.60;;;6.15;;
77111;SDS011;66064;50.226;14.344;2023-06-10T10:19:07;7.78;;;6.20;;
77111;SDS011;66064;50.226;14.344;2023-06-10T10:21:38;7.68;;;5.78;;
77111;SDS011;66064;50.226;14.344;2023-06-10T10:24:18;7.70;;;5.93;;
77111;SDS011;66064;50.226;14.344;2023-06-10T10:26:57;8.77;;;6.20;;
77111;SDS011;66064;50.226;14.344;2023-06-10T10:29:28;7.45;;;6.07;;
77111;SDS011;66064;50.226;14.344;2023-06-10T10:31:57;8.30;;;6.32;;
77111;SDS011;66064;50.226;14.344;2023-06-10T10:37:13;10.18;;;6.47;;
77111;SDS011;66064;50.226;14.344;2023-06-10T10:39:39;8.48;;;5.78;;
77111;SDS011;66064;50.226;14.344;2023-06-10T10:42:06;9.43;;;5.70;;
77111;SDS011;66064;50.226;14.344;2023-06-10T10:44:37;7.28;;;5.55;;
77111;SDS011;66064;50.226;14.344;2023-06-10T10:47:04;6.82;;;6.13;;
77111;SDS011;66064;50.226;14.344;2023-06-10T10:49:34;7.65;;;5.60;;
77111;SDS011;66064;50.226;14.344;2023-06-10T10:52:02;8.75;;;5.70;;
77111;SDS011;66064;50.226;14.344;2023-06-10T10:54:36;7.05;;;6.35;;
77111;SDS011;66064;50.226;14.344;2023-06-10T11:05:09;7.13;;;4.72;;
77111;SDS011;66064;50.226;14.344;2023-06-10T11:15:32;9.82;;;4.95;;
77111;SDS011;66064;50.226;14.344;2023-06-10T11:29:00;6.82;;;4.57;;
77111;SDS011;66064;50.226;14.344;2023-06-10T11:31:32;6.10;;;4.53;;
77111;SDS011;66064;50.226;14.344;2023-06-10T11:34:04;6.82;;;4.40;;
77111;SDS011;66064;50.226;14.344;2023-06-10T11:36:32;7.22;;;4.72;;
77111;SDS011;66064;50.226;14.344;2023-06-10T11:39:03;6.15;;;4.63;;
77111;SDS011;66064;50.226;14.344;2023-06-10T11:41:30;7.32;;;4.82;;
77111;SDS011;66064;50.226;14.344;2023-06-10T11:44:02;6.28;;;4.40;;
77111;SDS011;66064;50.226;14.344;2023-06-10T11:46:29;8.93;;;4.57;;
77111;SDS011;66064;50.226;14.344;2023-06-10T11:48:56;6.00;;;4.80;;
77111;SDS011;66064;50.226;14.344;2023-06-10T11:51:28;6.25;;;4.60;;
77111;SDS011;66064;50.226;14.344;2023-06-10T11:54:01;6.63;;;4.43;;
77111;SDS011;66064;50.226;14.344;2023-06-10T11:56:27;5.70;;;4.50;;
77111;SDS011;66064;50.226;14.344;2023-06-10T11:58:58;7.57;;;5.28;;
77111;SDS011;66064;50.226;14.344;2023-06-10T12:01:36;6.90;;;5.15;;
77111;SDS011;66064;50.226;14.344;2023-06-10T12:04:07;6.15;;;4.65;;
77111;SDS011;66064;50.226;14.344;2023-06-10T12:06:40;6.70;;;5.13;;
77111;SDS011;66064;50.226;14.344;2023-06-10T12:09:12;9.90;;;5.25;;
77111;SDS011;66064;50.226;14.344;2023-06-10T12:11:39;8.00;;;5.22;;
77111;SDS011;66064;50.226;14.344;2023-06-10T12:14:05;8.35;;;5.53;;
77111;SDS011;66064;50.226;14.344;2023-06-10T12:16:31;6.10;;;4.70;;
77111;SDS011;66064;50.226;14.344;2023-06-10T12:19:01;7.07;;;5.60;;
77111;SDS011;66064;50.226;14.344;2023-06-10T12:21:29;6.05;;;4.88;;
77111;SDS011;66064;50.226;14.344;2023-06-10T12:24:02;8.13;;;5.43;;
77111;SDS011;66064;50.226;14.344;2023-06-10T12:26:36;6.18;;;5.07;;
77111;SDS011;66064;50.226;14.344;2023-06-10T12:31:52;11.50;;;5.55;;
77111;SDS011;66064;50.226;14.344;2023-06-10T12:36:56;6.22;;;5.38;;
77111;SDS011;66064;50.226;14.344;2023-06-10T12:39:22;6.05;;;5.15;;
77111;SDS011;66064;50.226;14.344;2023-06-10T12:41:48;9.20;;;5.68;;
77111;SDS011;66064;50.226;14.344;2023-06-10T12:44:15;7.07;;;4.63;;
77111;SDS011;66064;50.226;14.344;2023-06-10T12:46:41;6.53;;;5.32;;
77111;SDS011;66064;50.226;14.344;2023-06-10T12:49:07;6.88;;;4.90;;
77111;SDS011;66064;50.226;14.344;2023-06-10T12:51:33;9.27;;;5.47;;
77111;SDS011;66064;50.226;14.344;2023-06-10T12:54:00;6.05;;;4.68;;
77111;SDS011;66064;50.226;14.344;2023-06-10T12:56:26;6.18;;;4.95;;
77111;SDS011;66064;50.226;14.344;2023-06-10T12:58:52;5.65;;;4.78;;
77111;SDS011;66064;50.226;14.344;2023-06-10T13:01:18;7.82;;;5.40;;
77111;SDS011;66064;50.226;14.344;2023-06-10T13:03:44;10.07;;;5.15;;
77111;SDS011;66064;50.226;14.344;2023-06-10T13:06:10;7.65;;;5.47;;
77111;SDS011;66064;50.226;14.344;2023-06-10T13:08:37;6.95;;;5.28;;
77111;SDS011;66064;50.226;14.344;2023-06-10T13:11:03;8.73;;;6.10;;
77111;SDS011;66064;50.226;14.344;2023-06-10T13:13:29;7.90;;;5.15;;
77111;SDS011;66064;50.226;14.344;2023-06-10T13:15:55;6.88;;;5.30;;
77111;SDS011;66064;50.226;14.344;2023-06-10T13:18:21;9.48;;;5.35;;
77111;SDS011;66064;50.226;14.344;2023-06-10T13:20:47;9.38;;;5.85;;
77111;SDS011;66064;50.226;14.344;2023-06-10T13:23:14;8.10;;;5.40;;
77111;SDS011;66064;50.226;14.344;2023-06-10T13:25:40;9.30;;;5.55;;
77111;SDS011;66064;50.226;14.344;2023-06-10T13:28:10;8.38;;;6.15;;
77111;SDS011;66064;50.226;14.344;2023-06-10T13:30:37;9.20;;;6.22;;
77111;SDS011;66064;50.226;14.344;2023-06-10T13:33:03;6.13;;;5.25;;
77111;SDS011;66064;50.226;14.344;2023-06-10T13:35:29;6.85;;;5.63;;
77111;SDS011;66064;50.226;14.344;2023-06-10T13:37:55;8.40;;;6.18;;
77111;SDS011;66064;50.226;14.344;2023-06-10T13:40:21;7.07;;;5.43;;
77111;SDS011;66064;50.226;14.344;2023-06-10T13:42:47;5.70;;;4.97;;
77111;SDS011;66064;50.226;14.344;2023-06-10T13:47:42;7.80;;;5.68;;
77111;SDS011;66064;50.226;14.344;2023-06-10T13:50:08;6.13;;;5.32;;
77111;SDS011;66064;50.226;14.344;2023-06-10T13:52:35;6.47;;;4.72;;
77111;SDS011;66064;50.226;14.344;2023-06-10T13:55:01;7.65;;;5.05;;
77111;SDS011;66064;50.226;14.344;2023-06-10T13:57:27;6.22;;;4.82;;
77111;SDS011;66064;50.226;14.344;2023-06-10T13:59:53;5.30;;;4.28;;
77111;SDS011;66064;50.226;14.344;2023-06-10T14:04:47;8.07;;;4.50;;
77111;SDS011;66064;50.226;14.344;2023-06-10T14:07:13;6.10;;;4.15;;
77111;SDS011;66064;50.226;14.344;2023-06-10T14:09:39;5.32;;;4.22;;
77111;SDS011;66064;50.226;14.344;2023-06-10T14:12:05;7.38;;;5.05;;
77111;SDS011;66064;50.226;14.344;2023-06-10T14:14:32;5.80;;;4.75;;
77111;SDS011;66064;50.226;14.344;2023-06-10T14:16:59;7.60;;;5.10;;
77111;SDS011;66064;50.226;14.344;2023-06-10T14:19:25;7.60;;;5.13;;
77111;SDS011;66064;50.226;14.344;2023-06-10T14:21:51;7.05;;;5.72;;
77111;SDS011;66064;50.226;14.344;2023-06-10T14:24:18;6.22;;;4.82;;
77111;SDS011;66064;50.226;14.344;2023-06-10T14:26:44;6.05;;;4.88;;
77111;SDS011;66064;50.226;14.344;2023-06-10T14:29:10;5.72;;;4.82;;
77111;SDS011;66064;50.226;14.344;2023-06-10T14:31:40;6.80;;;5.40;;
77111;SDS011;66064;50.226;14.344;2023-06-10T14:34:06;7.60;;;5.45;;
77111;SDS011;66064;50.226;14.344;2023-06-10T14:36:33;7.13;;;5.57;;
77111;SDS011;66064;50.226;14.344;2023-06-10T14:39:00;7.03;;;5.35;;
77111;SDS011;66064;50.226;14.344;2023-06-10T14:41:26;7.10;;;4.90;;
77111;SDS011;66064;50.226;14.344;2023-06-10T14:43:52;6.18;;;4.90;;
77111;SDS011;66064;50.226;14.344;2023-06-10T14:46:18;6.18;;;4.38;;
77111;SDS011;66064;50.226;14.344;2023-06-10T14:48:46;8.20;;;5.35;;
77111;SDS011;66064;50.226;14.344;2023-06-10T14:51:12;10.20;;;6.13;;
77111;SDS011;66064;50.226;14.344;2023-06-10T14:53:38;6.75;;;5.05;;
77111;SDS011;66064;50.226;14.344;2023-06-10T14:56:04;7.57;;;5.38;;
77111;SDS011;66064;50.226;14.344;2023-06-10T14:58:30;8.52;;;5.00;;
77111;SDS011;66064;50.226;14.344;2023-06-10T15:00:56;7.85;;;5.38;;
77111;SDS011;66064;50.226;14.344;2023-06-10T15:03:22;6.70;;;5.22;;
77111;SDS011;66064;50.226;14.344;2023-06-10T15:05:48;7.78;;;5.72;;
77111;SDS011;66064;50.226;14.344;2023-06-10T15:08:14;7.65;;;5.07;;
77111;SDS011;66064;50.226;14.344;2023-06-10T15:10:41;9.57;;;5.63;;
77111;SDS011;66064;50.226;14.344;2023-06-10T15:13:06;7.85;;;5.15;;
77111;SDS011;66064;50.226;14.344;2023-06-10T15:15:32;5.63;;;5.00;;
77111;SDS011;66064;50.226;14.344;2023-06-10T15:17:58;7.03;;;5.13;;
77111;SDS011;66064;50.226;14.344;2023-06-10T15:20:24;7.13;;;5.05;;